Euskara    
Meteorología y climatología de Navarra
Datos de la estación - Meteo Navarra

Estación de Tafalla GN

Altitud 430 m.


Datos desde el 23/02/2021 hasta el 24/02/2021 en horario solar
Los datos son PROVISIONALES

Anterior Página 1 de 1 Siguiente Descargar: Formato para Excel 2000 o superior   Formato csv   Formato para OpenOffice Calc
Fecha Temperatura Humedad relativa Radiación global Insolación Precipitación Vel. viento 10 m Vel. viento 10 m Dir. viento 10 m
°C % W/m² s l/m² m/s km/h °
23/02/2021 0:00 4.6 98 0.0 0 0.0 2.8 10.1 284
23/02/2021 0:10 4.1 98 0.0 0 0.0 1.6 5.6 280
23/02/2021 0:20 4.3 98 0.0 0 0.0 0.9 3.4 36
23/02/2021 0:30 4.6 98 0.0 0 0.0 0.2 0.6 36
23/02/2021 0:40 4.9 98 0.0 0 0.0 1.1 4.1 87
23/02/2021 0:50 4.8 98 0.0 0 0.0 0.8 2.7 100
23/02/2021 1:00 4.8 98 0.0 0 0.0 0.8 2.7 72
23/02/2021 1:10 5.0 99 0.0 0 0.0 0.9 3.1 100
23/02/2021 1:20 5.1 98 0.0 0 0.0 0.9 3.2 135
23/02/2021 1:30 5.1 99 0.0 0 0.0 0.7 2.7 171
23/02/2021 1:40 5.3 99 0.0 0 0.0 0.7 2.4 85
23/02/2021 1:50 5.4 99 0.0 0 0.0 0.8 3.0 68
23/02/2021 2:00 5.4 99 0.0 0 0.0 1.5 5.2 98
23/02/2021 2:10 5.6 99 0.0 0 0.0 1.4 4.9 112
23/02/2021 2:20 5.7 99 0.0 0 0.0 1.7 6.0 124
23/02/2021 2:30 5.7 99 0.0 0 0.0 1.7 5.9 122
23/02/2021 2:40 5.8 99 0.0 0 0.0 1.3 4.5 114
23/02/2021 2:50 5.8 99 0.0 0 0.0 1.3 4.6 115
23/02/2021 3:00 5.9 99 0.0 0 0.0 1.2 4.3 111
23/02/2021 3:10 5.9 99 0.0 0 0.0 1.4 5.0 98
23/02/2021 3:20 6.0 99 0.0 0 0.0 1.3 4.7 111
23/02/2021 3:30 6.0 99 0.0 0 0.0 1.8 6.3 122
23/02/2021 3:40 6.0 99 0.0 0 0.0 1.9 6.7 132
23/02/2021 3:50 6.0 99 0.0 0 0.0 1.6 5.8 130
23/02/2021 4:00 6.0 99 0.0 0 0.0 1.1 4.0 137
23/02/2021 4:10 6.0 99 0.0 0 0.0 1.2 4.2 120
23/02/2021 4:20 6.0 99 0.0 0 0.0 1.1 4.1 105
23/02/2021 4:30 5.9 99 0.0 0 0.0 1.0 3.5 106
23/02/2021 4:40 6.0 99 0.0 0 0.0 1.4 5.2 115
23/02/2021 4:50 6.0 99 0.0 0 0.0 1.2 4.4 113
23/02/2021 5:00 6.0 99 0.0 0 0.0 1.1 3.8 114
23/02/2021 5:10 6.0 99 0.0 0 0.0 1.3 4.7 111
23/02/2021 5:20 6.0 99 0.0 0 0.0 1.0 3.5 121
23/02/2021 5:30 5.9 99 0.0 0 0.0 0.7 2.7 174
23/02/2021 5:40 5.8 99 0.0 0 0.0 1.2 4.3 151
23/02/2021 5:50 5.8 99 0.0 0 0.0 1.3 4.6 151
23/02/2021 6:00 5.7 99 0.0 0 0.0 1.5 5.4 157
23/02/2021 6:10 5.9 99 0.0 0 0.0 1.4 5.2 163
23/02/2021 6:20 5.9 99 0.0 0 0.0 1.4 5.1 168
23/02/2021 6:30 5.9 99 0.0 0 0.0 1.1 3.9 183
23/02/2021 6:40 5.7 99 0.0 0 0.0 1.1 4.1 195
23/02/2021 6:50 5.6 99 0.0 0 0.0 1.3 4.5 186
23/02/2021 7:00 5.7 99 0.0 0 0.0 2.1 7.5 163
23/02/2021 7:10 5.6 99 0.0 0 0.0 1.8 6.4 138
23/02/2021 7:20 5.5 98 13.0 0 0.0 1.2 4.3 151
23/02/2021 7:30 5.1 98 24.1 0 0.0 1.0 3.6 210
23/02/2021 7:40 4.8 98 34.8 0 0.0 1.2 4.2 217
23/02/2021 7:50 4.9 98 51.2 0 0.0 1.5 5.4 186
23/02/2021 8:00 5.1 99 55.2 0 0.0 1.7 6.2 161
23/02/2021 8:10 5.3 99 69.4 0 0.0 1.6 5.8 131
23/02/2021 8:20 5.8 99 108.3 80 0.0 1.6 5.7 120
23/02/2021 8:30 6.1 99 142.4 330 0.0 2.5 8.9 130
23/02/2021 8:40 7.1 98 247.4 540 0.0 3.6 12.9 130
23/02/2021 8:50 7.5 93 151.0 86 0.0 4.3 15.6 131
23/02/2021 9:00 7.8 89 145.6 0 0.0 4.6 16.5 131
23/02/2021 9:10 7.8 87 146.1 0 0.0 4.8 17.4 133
23/02/2021 9:20 8.0 86 162.1 0 0.0 5.3 19.1 132
23/02/2021 9:30 8.1 86 196.3 0 0.0 5.7 20.4 134
23/02/2021 9:40 8.2 86 274.7 530 0.0 5.6 20.3 131
23/02/2021 9:50 8.6 85 408.7 576 0.0 5.6 20.2 138
23/02/2021 10:00 9.0 83 425.3 518 0.0 5.8 21.0 143
23/02/2021 10:10 9.4 82 544.6 564 0.0 5.7 20.4 146
23/02/2021 10:20 9.5 79 485.8 496 0.0 6.3 22.8 139
23/02/2021 10:30 9.7 78 467.1 500 0.0 6.4 23.1 141
23/02/2021 10:40 10.1 76 578.9 576 0.0 6.7 24.3 141
23/02/2021 10:50 10.5 76 614.5 518 0.0 6.0 21.6 141
23/02/2021 11:00 10.6 73 615.9 568 0.0 7.1 25.6 142
23/02/2021 11:10 10.9 73 642.8 600 0.0 6.3 22.7 140
23/02/2021 11:20 11.0 72 642.2 600 0.0 7.3 26.2 137
23/02/2021 11:30 11.1 73 665.8 600 0.0 6.9 25.0 136
23/02/2021 11:40 11.6 72 658.6 600 0.0 5.6 20.1 133
23/02/2021 11:50 11.8 72 654.6 582 0.0 6.4 23.2 134
23/02/2021 12:00 11.7 70 653.7 600 0.0 7.2 26.0 128
23/02/2021 12:10 11.8 69 652.5 600 0.0 7.8 27.9 130
23/02/2021 12:20 12.0 68 647.5 600 0.0 7.4 26.7 133
23/02/2021 12:30 12.2 68 637.2 598 0.0 7.7 27.5 132
23/02/2021 12:40 12.3 66 639.3 600 0.0 7.7 27.8 128
23/02/2021 12:50 12.7 66 632.7 600 0.0 7.2 26.1 132
23/02/2021 13:00 12.7 65 626.6 600 0.0 7.8 28.2 135
23/02/2021 13:10 12.9 65 617.9 600 0.0 7.8 28.0 138
23/02/2021 13:20 13.0 63 609.5 600 0.0 8.6 31.1 136
23/02/2021 13:30 13.1 64 600.5 600 0.0 7.8 27.9 132
23/02/2021 13:40 13.4 63 590.6 600 0.0 7.2 26.0 135
23/02/2021 13:50 13.2 63 588.6 600 0.0 7.8 28.2 129
23/02/2021 14:00 13.3 62 572.0 600 0.0 8.4 30.1 140
23/02/2021 14:10 13.2 62 560.0 600 0.0 8.7 31.4 137
23/02/2021 14:20 13.4 62 547.6 600 0.0 8.5 30.5 136
23/02/2021 14:30 13.4 63 520.0 588 0.0 8.3 30.0 140
23/02/2021 14:40 13.5 64 549.4 600 0.0 7.3 26.1 129
23/02/2021 14:50 13.5 63 448.2 530 0.0 7.9 28.6 124
23/02/2021 15:00 13.2 64 277.9 278 0.0 7.7 27.6 129
23/02/2021 15:10 13.2 65 378.0 480 0.0 7.1 25.6 129
23/02/2021 15:20 13.5 63 409.3 556 0.0 8.0 28.9 125
23/02/2021 15:30 13.2 65 278.1 394 0.0 6.8 24.5 135
23/02/2021 15:40 13.2 65 231.5 330 0.0 7.2 25.8 126
23/02/2021 15:50 13.2 65 214.3 314 0.0 6.6 23.9 131
23/02/2021 16:00 13.2 66 281.8 554 0.0 6.5 23.4 127
23/02/2021 16:10 13.3 66 266.0 600 0.0 7.2 26.0 128
23/02/2021 16:20 13.3 64 241.1 600 0.0 8.1 29.1 132
23/02/2021 16:30 13.2 65 211.6 600 0.0 7.0 25.3 134
23/02/2021 16:40 13.2 67 181.8 600 0.0 7.0 25.0 133
23/02/2021 16:50 13.0 70 147.3 600 0.0 5.6 20.0 129
23/02/2021 17:00 12.8 70 115.4 600 0.0 5.2 18.6 125
23/02/2021 17:10 12.7 70 83.7 600 0.0 6.0 21.6 132
23/02/2021 17:20 12.5 70 59.9 600 0.0 6.2 22.3 133
23/02/2021 17:30 12.2 73 39.0 498 0.0 4.8 17.4 133
23/02/2021 17:40 11.9 75 17.5 4 0.0 4.4 15.8 129
23/02/2021 17:50 11.7 75 0.0 0 0.0 4.3 15.5 132
23/02/2021 18:00 11.4 75 0.0 0 0.0 4.2 15.2 134
23/02/2021 18:10 11.2 76 0.0 0 0.0 4.2 15.0 130
23/02/2021 18:20 11.0 77 0.0 0 0.0 4.1 14.6 130
23/02/2021 18:30 11.0 76 0.0 0 0.0 4.0 14.4 126
23/02/2021 18:40 10.6 77 0.0 0 0.0 3.6 13.0 126
23/02/2021 18:50 10.4 78 0.0 0 0.0 3.7 13.1 127
23/02/2021 19:00 10.3 79 0.0 0 0.0 3.7 13.3 125
23/02/2021 19:10 10.3 80 0.0 0 0.0 4.0 14.4 127
23/02/2021 19:20 10.3 80 0.0 0 0.0 4.4 15.7 131
23/02/2021 19:30 10.3 79 0.0 0 0.0 4.2 15.2 133
23/02/2021 19:40 10.1 80 0.0 0 0.0 4.2 15.0 136
23/02/2021 19:50 10.2 79 0.0 0 0.0 4.3 15.4 134
23/02/2021 20:00 10.1 79 0.0 0 0.0 4.1 14.6 135
23/02/2021 20:10 10.0 80 0.0 0 0.0 4.0 14.2 136
23/02/2021 20:20 9.9 80 0.0 0 0.0 4.2 15.1 135
23/02/2021 20:30 9.9 80 0.0 0 0.0 4.5 16.2 136
23/02/2021 20:40 9.8 81 0.0 0 0.0 4.3 15.4 130
23/02/2021 20:50 9.5 82 0.0 0 0.0 4.1 14.9 133
23/02/2021 21:00 9.3 83 0.0 0 0.0 3.3 11.9 130
23/02/2021 21:10 9.0 84 0.0 0 0.0 2.7 9.9 121
23/02/2021 21:20 8.8 85 0.0 0 0.0 2.8 10.0 116
23/02/2021 21:30 8.7 85 0.0 0 0.0 3.0 10.6 118
23/02/2021 21:40 8.7 85 0.0 0 0.0 2.9 10.3 120
23/02/2021 21:50 8.8 85 0.0 0 0.0 3.2 11.5 123
23/02/2021 22:00 8.7 85 0.0 0 0.0 3.1 11.0 124
23/02/2021 22:10 8.6 86 0.0 0 0.0 2.7 9.9 126
23/02/2021 22:20 8.5 86 0.0 0 0.0 1.8 6.3 121
23/02/2021 22:30 8.2 87 0.0 0 0.0 1.7 6.0 124
23/02/2021 22:40 8.2 87 0.0 0 0.0 1.5 5.4 130
23/02/2021 22:50 8.2 87 0.0 0 0.0 0.8 2.9 171
23/02/2021 23:00 7.8 89 0.0 0 0.0 1.5 5.4 172
23/02/2021 23:10 7.8 89 0.0 0 0.0 2.2 7.8 157
23/02/2021 23:20 7.8 89 0.0 0 0.0 2.1 7.6 151
23/02/2021 23:30 7.8 89 0.0 0 0.0 1.4 5.1 133
23/02/2021 23:40 7.6 90 0.0 0 0.0 1.7 6.0 121
23/02/2021 23:50 7.2 91 0.0 0 0.0 2.1 7.6 128
Anterior Página 1 de 1 Siguiente

NOTA: Tipo de datos según el color:
   - Valores diarios o 10 minutos correctos
   - Valores diarios calculados a partir de un número de datos 10 minutos menor que 144 y mayor que 120, o de un número de datos semihorarios menor que 48 y mayor que 40 (caso de las estaciones de INTIA Y Ministerio)
   - Valores diez minutos estimados


Contacto        Enlaces        Aviso legal